createdAt,value
2018-06-10T00:00:35.250Z,989.8
2018-06-10T00:01:35.960Z,989.8
2018-06-10T00:02:36.631Z,989.8
2018-06-10T00:03:37.343Z,989.8
2018-06-10T00:04:38.014Z,989.8
2018-06-10T00:05:38.688Z,989.8
2018-06-10T00:06:39.359Z,989.8
2018-06-10T00:07:40.033Z,989.8
2018-06-10T00:08:40.707Z,989.8
2018-06-10T00:09:41.379Z,989.8
2018-06-10T00:10:42.052Z,989.7
2018-06-10T00:11:42.724Z,989.7
2018-06-10T00:12:43.399Z,989.7
2018-06-10T00:13:44.071Z,989.6
2018-06-10T00:14:44.743Z,989.6
2018-06-10T00:15:45.416Z,989.6
2018-06-10T00:16:46.089Z,989.6
2018-06-10T00:17:46.762Z,989.6
2018-06-10T00:18:47.438Z,989.5
2018-06-10T00:19:48.110Z,989.5
2018-06-10T00:20:48.784Z,989.5
2018-06-10T00:21:49.459Z,989.5
2018-06-10T00:22:50.138Z,989.5
2018-06-10T00:23:50.843Z,989.5
2018-06-10T00:24:51.516Z,989.4
2018-06-10T00:25:52.188Z,989.4
2018-06-10T00:26:52.902Z,989.4
2018-06-10T00:27:53.573Z,989.4
2018-06-10T00:28:54.248Z,989.4
2018-06-10T00:29:54.922Z,989.4
2018-06-10T00:30:55.594Z,989.4
2018-06-10T00:31:56.267Z,989.4
2018-06-10T00:32:56.941Z,989.4
2018-06-10T00:33:57.615Z,989.4
2018-06-10T00:34:58.327Z,989.4
2018-06-10T00:35:58.997Z,989.5
2018-06-10T00:36:59.668Z,989.5
2018-06-10T00:38:00.341Z,989.5
2018-06-10T00:39:01.013Z,989.5
2018-06-10T00:40:01.692Z,989.5
2018-06-10T00:41:02.364Z,989.5
2018-06-10T00:42:03.034Z,989.5
2018-06-10T00:43:03.707Z,989.5
2018-06-10T00:44:04.381Z,989.5
2018-06-10T00:45:05.055Z,989.5
2018-06-10T00:46:05.727Z,989.4
2018-06-10T00:47:06.399Z,989.4
2018-06-10T00:48:07.073Z,989.4
2018-06-10T00:49:07.785Z,989.5
2018-06-10T00:50:08.459Z,989.4
2018-06-10T00:51:09.133Z,989.5
2018-06-10T00:52:09.805Z,989.5
2018-06-10T00:53:10.478Z,989.5
2018-06-10T00:54:11.153Z,989.5
2018-06-10T00:55:11.824Z,989.5
2018-06-10T00:56:12.497Z,989.5
2018-06-10T00:57:13.169Z,989.6
2018-06-10T00:58:13.841Z,989.6
2018-06-10T00:59:14.513Z,989.6
2018-06-10T01:00:15.189Z,989.6
2018-06-10T01:01:15.862Z,989.6
2018-06-10T01:02:16.537Z,989.6
2018-06-10T01:03:17.250Z,989.6
2018-06-10T01:04:17.957Z,989.7
2018-06-10T01:05:18.631Z,989.6
2018-06-10T01:06:19.304Z,989.6
2018-06-10T01:07:19.977Z,989.6
2018-06-10T01:08:20.649Z,989.7
2018-06-10T01:09:21.322Z,989.7
2018-06-10T01:10:22.046Z,989.7
2018-06-10T01:11:22.720Z,989.7
2018-06-10T01:12:23.397Z,989.7
2018-06-10T01:13:24.104Z,989.6
2018-06-10T01:14:24.777Z,989.7
2018-06-10T01:15:25.501Z,989.7
2018-06-10T01:16:26.176Z,989.7
2018-06-10T01:17:26.848Z,989.7
2018-06-10T01:18:27.520Z,989.7
2018-06-10T01:19:28.194Z,989.7
2018-06-10T01:20:28.867Z,989.7
2018-06-10T01:21:29.542Z,989.7
2018-06-10T01:22:30.215Z,989.7
2018-06-10T01:23:30.887Z,989.7
2018-06-10T01:24:31.557Z,989.7
2018-06-10T01:25:32.229Z,989.7
2018-06-10T01:26:32.901Z,989.7
2018-06-10T01:27:33.573Z,989.7
2018-06-10T01:28:34.248Z,989.7
2018-06-10T01:29:34.920Z,989.7
2018-06-10T01:30:35.592Z,989.8
2018-06-10T01:31:36.264Z,989.8
2018-06-10T01:32:36.936Z,989.7
2018-06-10T01:33:37.612Z,989.7
2018-06-10T01:34:38.291Z,989.8
2018-06-10T01:35:38.993Z,989.7
2018-06-10T01:36:39.672Z,989.7
2018-06-10T01:37:40.337Z,989.7
2018-06-10T01:38:41.010Z,989.7
2018-06-10T01:39:41.684Z,989.7
2018-06-10T01:40:42.359Z,989.7
2018-06-10T01:41:43.031Z,989.7
2018-06-10T01:42:43.703Z,989.7
2018-06-10T01:43:44.376Z,989.7
2018-06-10T01:44:45.050Z,989.7
2018-06-10T01:45:45.721Z,989.7
2018-06-10T01:46:46.393Z,989.7
2018-06-10T01:47:47.066Z,989.7
2018-06-10T01:48:47.741Z,989.7
2018-06-10T01:49:48.413Z,989.7
2018-06-10T01:50:49.129Z,989.7
2018-06-10T01:51:49.803Z,989.7
2018-06-10T01:52:50.473Z,989.8
2018-06-10T01:53:51.148Z,989.8
2018-06-10T01:54:51.860Z,989.8
2018-06-10T01:55:52.532Z,989.8
2018-06-10T01:56:53.205Z,989.8
2018-06-10T01:57:53.877Z,989.7
2018-06-10T01:58:54.549Z,989.7
2018-06-10T01:59:55.222Z,989.7
2018-06-10T02:00:55.900Z,989.7
2018-06-10T02:01:56.570Z,989.6
2018-06-10T02:02:57.242Z,989.6
2018-06-10T02:03:57.915Z,989.6
2018-06-10T02:04:58.588Z,989.7
2018-06-10T02:05:59.262Z,989.6
2018-06-10T02:06:59.934Z,989.6
2018-06-10T02:08:00.607Z,989.7
2018-06-10T02:09:01.319Z,989.6
2018-06-10T02:10:01.992Z,989.7
2018-06-10T02:11:02.673Z,989.7
2018-06-10T02:12:03.380Z,989.7
2018-06-10T02:13:04.053Z,989.7
2018-06-10T02:14:04.726Z,989.7
2018-06-10T02:15:05.400Z,989.7
2018-06-10T02:16:06.076Z,989.7
2018-06-10T02:17:06.745Z,989.7
2018-06-10T02:18:07.418Z,989.7
2018-06-10T02:19:08.089Z,989.8
2018-06-10T02:20:08.761Z,989.8
2018-06-10T02:21:09.435Z,989.8
2018-06-10T02:22:10.109Z,989.8
2018-06-10T02:23:10.782Z,989.8
2018-06-10T02:24:11.454Z,989.8
2018-06-10T02:25:12.126Z,989.8
2018-06-10T02:26:12.799Z,989.8
2018-06-10T02:27:13.471Z,989.9
2018-06-10T02:28:14.142Z,989.9
2018-06-10T02:29:14.814Z,989.9
2018-06-10T02:30:15.485Z,990.0
2018-06-10T02:31:16.160Z,989.9
2018-06-10T02:32:16.836Z,989.9
2018-06-10T02:33:17.508Z,989.9
2018-06-10T02:34:18.225Z,989.9
2018-06-10T02:35:18.858Z,989.9
2018-06-10T02:36:19.525Z,989.9
2018-06-10T02:37:20.197Z,989.9
2018-06-10T02:38:20.870Z,989.9
2018-06-10T02:39:21.543Z,989.9
2018-06-10T02:40:22.216Z,989.9
2018-06-10T02:41:22.892Z,989.9
2018-06-10T02:42:23.565Z,989.9
2018-06-10T02:43:24.239Z,989.9
2018-06-10T02:44:24.912Z,989.9
2018-06-10T02:45:25.585Z,989.9
2018-06-10T02:46:26.262Z,989.9
2018-06-10T02:47:26.973Z,989.9
2018-06-10T02:48:27.645Z,989.9
2018-06-10T02:49:28.320Z,989.9
2018-06-10T02:50:28.996Z,989.9
2018-06-10T02:51:29.670Z,989.9
2018-06-10T02:52:30.345Z,989.9
2018-06-10T02:53:31.021Z,989.9
2018-06-10T02:54:31.732Z,989.9
2018-06-10T02:55:32.409Z,989.9
2018-06-10T02:56:33.080Z,989.9
2018-06-10T02:57:33.767Z,989.9
2018-06-10T02:58:34.431Z,989.9
2018-06-10T02:59:35.112Z,989.9
2018-06-10T03:00:35.780Z,989.9
2018-06-10T03:01:36.455Z,989.9
2018-06-10T03:02:37.129Z,990.0
2018-06-10T03:03:37.804Z,989.9
2018-06-10T03:04:38.481Z,989.9
2018-06-10T03:05:39.160Z,989.9
2018-06-10T03:06:39.830Z,989.9
2018-06-10T03:07:40.507Z,989.9
2018-06-10T03:08:41.179Z,989.9
2018-06-10T03:09:41.894Z,989.9
2018-06-10T03:10:42.569Z,989.9
2018-06-10T03:11:43.245Z,989.9
2018-06-10T03:12:43.921Z,989.9
2018-06-10T03:13:44.635Z,989.9
2018-06-10T03:14:45.312Z,989.8
2018-06-10T03:15:46.025Z,989.9
2018-06-10T03:16:46.700Z,989.9
2018-06-10T03:17:47.375Z,989.9
2018-06-10T03:18:48.054Z,989.9
2018-06-10T03:19:48.730Z,989.9
2018-06-10T03:20:49.406Z,989.9
2018-06-10T03:21:50.083Z,989.9
2018-06-10T03:22:50.758Z,989.9
2018-06-10T03:23:51.437Z,989.9
2018-06-10T03:24:52.113Z,989.9
2018-06-10T03:25:52.791Z,989.9
2018-06-10T03:26:53.466Z,989.9
2018-06-10T03:27:54.143Z,989.9
2018-06-10T03:28:54.865Z,989.9
2018-06-10T03:29:55.539Z,989.9
2018-06-10T03:30:56.213Z,989.9
2018-06-10T03:31:56.931Z,989.9
2018-06-10T03:32:57.606Z,989.9
2018-06-10T03:33:58.282Z,989.9
2018-06-10T03:34:58.960Z,989.9
2018-06-10T03:35:59.636Z,989.8
2018-06-10T03:37:00.313Z,989.9
2018-06-10T03:38:00.990Z,989.9
2018-06-10T03:39:01.664Z,989.9
2018-06-10T03:40:02.341Z,989.8
2018-06-10T03:41:03.018Z,989.8
2018-06-10T03:42:03.694Z,989.8
2018-06-10T03:43:04.371Z,989.8
2018-06-10T03:44:05.046Z,989.8
2018-06-10T03:45:05.723Z,989.8
2018-06-10T03:46:06.403Z,989.8
2018-06-10T03:47:07.125Z,989.8
2018-06-10T03:48:07.801Z,989.8
2018-06-10T03:49:08.476Z,989.9
2018-06-10T03:50:09.150Z,989.8
2018-06-10T03:51:09.827Z,989.9
2018-06-10T03:52:10.502Z,989.8
2018-06-10T03:53:11.179Z,989.8
2018-06-10T03:54:11.856Z,989.8
2018-06-10T03:55:12.531Z,989.8
2018-06-10T03:56:13.209Z,989.8
2018-06-10T03:57:13.886Z,989.8
2018-06-10T03:58:14.565Z,989.8
2018-06-10T03:59:15.243Z,989.8
2018-06-10T04:00:15.958Z,989.9
2018-06-10T04:01:16.635Z,989.8
2018-06-10T04:02:17.313Z,989.9
2018-06-10T04:03:17.988Z,989.9
2018-06-10T04:04:18.667Z,989.9
2018-06-10T04:05:19.342Z,989.9
2018-06-10T04:06:20.019Z,989.9
2018-06-10T04:07:20.698Z,989.9
2018-06-10T04:08:21.374Z,989.9
2018-06-10T04:09:22.052Z,989.9
2018-06-10T04:10:22.727Z,989.9
2018-06-10T04:11:23.404Z,989.8
2018-06-10T04:12:24.081Z,989.9
2018-06-10T04:13:24.759Z,989.9
2018-06-10T04:14:25.437Z,989.9
2018-06-10T04:15:26.111Z,989.9
2018-06-10T04:16:26.788Z,989.9
2018-06-10T04:17:27.467Z,989.9
2018-06-10T04:18:28.144Z,989.9
2018-06-10T04:19:28.821Z,989.9
2018-06-10T04:20:29.499Z,989.9
2018-06-10T04:21:30.177Z,989.9
2018-06-10T04:22:30.906Z,989.9
2018-06-10T04:23:31.531Z,989.8
2018-06-10T04:24:32.210Z,989.8
2018-06-10T04:25:32.889Z,989.9
2018-06-10T04:26:33.566Z,989.9
2018-06-10T04:27:34.241Z,989.9
2018-06-10T04:28:34.919Z,989.9
2018-06-10T04:29:35.597Z,989.9
2018-06-10T04:30:36.273Z,989.9
2018-06-10T04:31:36.990Z,989.9
2018-06-10T04:32:37.668Z,989.9
2018-06-10T04:33:38.350Z,989.9
2018-06-10T04:34:39.063Z,989.9
2018-06-10T04:35:39.742Z,989.9
2018-06-10T04:36:40.418Z,989.9
2018-06-10T04:37:41.096Z,989.9
2018-06-10T04:38:41.772Z,989.9
2018-06-10T04:39:42.450Z,989.9
2018-06-10T04:40:43.128Z,989.9
2018-06-10T04:41:43.804Z,989.9
2018-06-10T04:42:44.484Z,989.8
2018-06-10T04:43:45.162Z,989.9
2018-06-10T04:44:45.880Z,989.8
2018-06-10T04:45:46.556Z,989.8
2018-06-10T04:46:47.233Z,989.8
2018-06-10T04:47:47.952Z,989.8
2018-06-10T04:48:48.631Z,989.8
2018-06-10T04:49:49.308Z,989.9
2018-06-10T04:50:49.988Z,989.9
2018-06-10T04:51:50.663Z,989.9
2018-06-10T04:52:51.390Z,989.9
2018-06-10T04:53:52.066Z,989.9
2018-06-10T04:54:52.745Z,989.9
2018-06-10T04:55:53.422Z,989.9
2018-06-10T04:56:54.100Z,989.9
2018-06-10T04:57:54.778Z,989.9
2018-06-10T04:58:55.456Z,989.9
2018-06-10T04:59:56.135Z,989.9
2018-06-10T05:00:56.812Z,989.9
2018-06-10T05:01:57.493Z,989.9
2018-06-10T05:02:58.166Z,989.9
2018-06-10T05:03:58.844Z,989.9
2018-06-10T05:04:59.523Z,989.9
2018-06-10T05:06:00.200Z,989.9
2018-06-10T05:07:00.878Z,989.8
2018-06-10T05:08:01.558Z,989.9
2018-06-10T05:09:02.237Z,989.8
2018-06-10T05:10:02.912Z,989.9
2018-06-10T05:11:03.591Z,989.9
2018-06-10T05:12:04.269Z,989.9
2018-06-10T05:13:04.947Z,989.9
2018-06-10T05:14:05.626Z,989.9
2018-06-10T05:15:06.303Z,989.9
2018-06-10T05:16:06.982Z,989.9
2018-06-10T05:17:07.661Z,989.9
2018-06-10T05:18:08.340Z,989.9
2018-06-10T05:19:09.016Z,989.9
2018-06-10T05:20:09.735Z,989.9
2018-06-10T05:21:10.373Z,989.9
2018-06-10T05:22:11.050Z,989.9
2018-06-10T05:23:11.728Z,990.0
2018-06-10T05:24:12.406Z,989.9
2018-06-10T05:25:13.083Z,989.9
2018-06-10T05:26:13.763Z,989.9
2018-06-10T05:27:14.440Z,989.9
2018-06-10T05:28:15.121Z,989.9
2018-06-10T05:29:15.798Z,989.9
2018-06-10T05:30:16.514Z,989.9
2018-06-10T05:31:17.193Z,990.0
2018-06-10T05:32:17.870Z,990.0
2018-06-10T05:33:18.548Z,990.0
2018-06-10T05:34:19.226Z,990.0
2018-06-10T05:35:19.905Z,989.9
2018-06-10T05:36:20.583Z,990.0
2018-06-10T05:37:21.259Z,990.0
2018-06-10T05:38:21.938Z,989.9
2018-06-10T05:39:22.616Z,990.0
2018-06-10T05:40:23.293Z,989.9
2018-06-10T05:41:24.012Z,990.0
2018-06-10T05:42:24.690Z,989.9
2018-06-10T05:43:25.369Z,989.9
2018-06-10T05:44:26.048Z,989.9
2018-06-10T05:45:26.766Z,989.9
2018-06-10T05:46:27.447Z,990.0
2018-06-10T05:47:28.164Z,989.9
2018-06-10T05:48:28.843Z,989.9
2018-06-10T05:49:29.523Z,989.9
2018-06-10T05:50:30.242Z,989.9
2018-06-10T05:51:30.923Z,989.9
2018-06-10T05:52:31.602Z,989.9
2018-06-10T05:53:32.281Z,989.9
2018-06-10T05:54:32.961Z,989.9
2018-06-10T05:55:33.639Z,989.9
2018-06-10T05:56:34.320Z,989.9
2018-06-10T05:57:35.000Z,989.9
2018-06-10T05:58:35.678Z,989.9
2018-06-10T05:59:36.359Z,989.9
2018-06-10T06:00:37.037Z,989.9
2018-06-10T06:01:37.716Z,989.9
2018-06-10T06:02:38.397Z,989.9
2018-06-10T06:03:39.075Z,989.9
2018-06-10T06:04:39.755Z,989.9
2018-06-10T06:05:40.435Z,990.0
2018-06-10T06:06:41.114Z,990.0
2018-06-10T06:07:41.794Z,990.0
2018-06-10T06:08:42.474Z,990.0
2018-06-10T06:09:43.154Z,990.0
2018-06-10T06:10:43.835Z,990.0
2018-06-10T06:11:44.514Z,990.1
2018-06-10T06:12:45.193Z,990.1
2018-06-10T06:13:45.874Z,990.0
2018-06-10T06:14:46.554Z,990.1
2018-06-10T06:15:47.235Z,990.1
2018-06-10T06:16:47.913Z,990.1
2018-06-10T06:17:48.595Z,990.1
2018-06-10T06:18:49.274Z,990.1
2018-06-10T06:19:49.953Z,990.1
2018-06-10T06:20:50.633Z,990.1
2018-06-10T06:21:51.314Z,990.1
2018-06-10T06:22:51.993Z,990.1
2018-06-10T06:23:52.674Z,990.1
2018-06-10T06:24:53.352Z,990.1
2018-06-10T06:25:54.033Z,990.1
2018-06-10T06:26:54.714Z,990.0
2018-06-10T06:27:55.394Z,990.0
2018-06-10T06:28:56.074Z,990.1
2018-06-10T06:29:56.755Z,990.1
2018-06-10T06:30:57.437Z,990.1
2018-06-10T06:31:58.116Z,990.1
2018-06-10T06:32:58.795Z,990.0
2018-06-10T06:33:59.473Z,990.0
2018-06-10T06:35:00.155Z,990.1
2018-06-10T06:36:00.837Z,990.0
2018-06-10T06:37:01.514Z,990.1
2018-06-10T06:38:02.193Z,990.1
2018-06-10T06:39:02.876Z,990.0
2018-06-10T06:40:03.555Z,990.0
2018-06-10T06:41:04.235Z,990.0
2018-06-10T06:42:04.915Z,990.1
2018-06-10T06:43:05.599Z,990.0
2018-06-10T06:44:06.315Z,990.0
2018-06-10T06:45:06.995Z,990.1
2018-06-10T06:46:07.675Z,990.0
2018-06-10T06:47:08.394Z,990.0
2018-06-10T06:48:09.036Z,990.0
2018-06-10T06:49:09.714Z,990.0
2018-06-10T06:50:10.394Z,990.0
2018-06-10T06:51:11.073Z,990.0
2018-06-10T06:52:11.752Z,990.0
2018-06-10T06:53:12.435Z,990.0
2018-06-10T06:54:13.113Z,990.0
2018-06-10T06:55:13.794Z,990.0
2018-06-10T06:56:14.474Z,990.0
2018-06-10T06:57:15.158Z,990.1
2018-06-10T06:58:15.875Z,990.1
2018-06-10T06:59:16.562Z,990.1
2018-06-10T07:00:17.274Z,990.1
2018-06-10T07:01:17.956Z,990.1
2018-06-10T07:02:18.639Z,990.1
2018-06-10T07:03:19.320Z,990.1
2018-06-10T07:04:20.061Z,990.1
2018-06-10T07:05:20.677Z,990.1
2018-06-10T07:06:21.359Z,990.2
2018-06-10T07:07:22.039Z,990.2
2018-06-10T07:08:22.717Z,990.1
2018-06-10T07:09:23.397Z,990.1
2018-06-10T07:10:24.079Z,990.1
2018-06-10T07:11:24.797Z,990.2
2018-06-10T07:12:25.478Z,990.1
2018-06-10T07:13:26.158Z,990.1
2018-06-10T07:14:26.837Z,990.1
2018-06-10T07:15:27.518Z,990.1
2018-06-10T07:16:28.198Z,990.1
2018-06-10T07:17:28.899Z,990.1
2018-06-10T07:18:29.597Z,990.1
2018-06-10T07:19:30.279Z,990.1
2018-06-10T07:20:30.960Z,990.1
2018-06-10T07:21:31.642Z,990.1
2018-06-10T07:22:32.321Z,990.2
2018-06-10T07:23:33.005Z,990.2
2018-06-10T07:24:33.685Z,990.1
2018-06-10T07:25:34.365Z,990.2
2018-06-10T07:26:35.046Z,990.2
2018-06-10T07:27:35.725Z,990.2
2018-06-10T07:28:36.405Z,990.2
2018-06-10T07:29:37.086Z,990.2
2018-06-10T07:30:37.766Z,990.2
2018-06-10T07:31:38.447Z,990.2
2018-06-10T07:32:39.129Z,990.2
2018-06-10T07:33:39.811Z,990.2
2018-06-10T07:34:40.490Z,990.2
2018-06-10T07:35:41.171Z,990.2
2018-06-10T07:36:41.852Z,990.2
2018-06-10T07:37:42.534Z,990.2
2018-06-10T07:38:43.212Z,990.2
2018-06-10T07:39:43.893Z,990.2
2018-06-10T07:40:44.574Z,990.2
2018-06-10T07:41:45.255Z,990.2
2018-06-10T07:42:45.937Z,990.2
2018-06-10T07:43:46.655Z,990.2
2018-06-10T07:44:47.391Z,990.3
2018-06-10T07:45:48.107Z,990.3
2018-06-10T07:46:48.788Z,990.3
2018-06-10T07:47:49.474Z,990.3
2018-06-10T07:48:50.150Z,990.3
2018-06-10T07:49:50.831Z,990.3
2018-06-10T07:50:51.512Z,990.3
2018-06-10T07:51:52.191Z,990.3
2018-06-10T07:52:52.872Z,990.3
2018-06-10T07:53:53.556Z,990.3
2018-06-10T07:54:54.238Z,990.3
2018-06-10T07:55:54.918Z,990.3
2018-06-10T07:56:55.600Z,990.3
2018-06-10T07:57:56.281Z,990.3
2018-06-10T07:58:56.962Z,990.3
2018-06-10T07:59:57.644Z,990.3
2018-06-10T08:00:58.323Z,990.3
2018-06-10T08:01:59.008Z,990.3
2018-06-10T08:02:59.730Z,990.4
2018-06-10T08:04:00.409Z,990.4
2018-06-10T08:05:01.090Z,990.3
2018-06-10T08:06:01.774Z,990.4
2018-06-10T08:07:02.455Z,990.4
2018-06-10T08:08:03.137Z,990.3
2018-06-10T08:09:03.819Z,990.4
2018-06-10T08:10:04.501Z,990.4
2018-06-10T08:11:05.183Z,990.3
2018-06-10T08:12:05.874Z,990.3
2018-06-10T08:13:06.550Z,990.3
2018-06-10T08:14:07.228Z,990.3
2018-06-10T08:15:07.911Z,990.3
2018-06-10T08:16:08.593Z,990.3
2018-06-10T08:17:09.274Z,990.4
2018-06-10T08:18:09.954Z,990.3
2018-06-10T08:19:10.640Z,990.4
2018-06-10T08:20:11.360Z,990.4
2018-06-10T08:21:12.041Z,990.4
2018-06-10T08:22:12.724Z,990.4
2018-06-10T08:23:13.403Z,990.4
2018-06-10T08:24:14.086Z,990.4
2018-06-10T08:25:14.767Z,990.4
2018-06-10T08:26:15.448Z,990.4
2018-06-10T08:27:16.131Z,990.4
2018-06-10T08:28:16.813Z,990.4
2018-06-10T08:29:17.495Z,990.4
2018-06-10T08:30:18.175Z,990.4
2018-06-10T08:31:18.856Z,990.4
2018-06-10T08:32:19.539Z,990.4
2018-06-10T08:33:20.220Z,990.4
2018-06-10T08:34:20.901Z,990.4
2018-06-10T08:35:21.581Z,990.4
2018-06-10T08:36:22.265Z,990.4
2018-06-10T08:37:22.998Z,990.4
2018-06-10T08:38:23.627Z,990.4
2018-06-10T08:39:24.308Z,990.4
2018-06-10T08:40:24.991Z,990.4
2018-06-10T08:41:25.672Z,990.4
2018-06-10T08:42:26.355Z,990.4
2018-06-10T08:43:27.073Z,990.4
2018-06-10T08:44:27.794Z,990.5
2018-06-10T08:45:28.476Z,990.4
2018-06-10T08:46:29.157Z,990.4
2018-06-10T08:47:29.839Z,990.4
2018-06-10T08:48:30.519Z,990.5
2018-06-10T08:49:31.202Z,990.5
2018-06-10T08:50:31.954Z,990.5
2018-06-10T08:51:32.612Z,990.5
2018-06-10T08:52:33.294Z,990.5
2018-06-10T08:53:33.976Z,990.5
2018-06-10T08:54:34.656Z,990.5
2018-06-10T08:55:35.336Z,990.5
2018-06-10T08:56:36.017Z,990.5
2018-06-10T08:57:36.702Z,990.5
2018-06-10T08:58:37.380Z,990.5
2018-06-10T08:59:38.059Z,990.6
2018-06-10T09:00:38.743Z,990.5
2018-06-10T09:01:39.422Z,990.5
2018-06-10T09:02:40.116Z,990.5
2018-06-10T09:03:40.814Z,990.5
2018-06-10T09:04:41.495Z,990.5
2018-06-10T09:05:42.175Z,990.5
2018-06-10T09:06:42.859Z,990.5
2018-06-10T09:07:43.542Z,990.5
2018-06-10T09:08:44.326Z,990.5
2018-06-10T09:09:44.940Z,990.5
2018-06-10T09:10:45.620Z,990.5
2018-06-10T09:11:46.306Z,990.5
2018-06-10T09:12:47.024Z,990.5
2018-06-10T09:13:47.706Z,990.5
2018-06-10T09:14:48.389Z,990.5
2018-06-10T09:15:49.067Z,990.6
2018-06-10T09:16:49.748Z,990.6
2018-06-10T09:17:50.428Z,990.6
2018-06-10T09:18:51.108Z,990.7
2018-06-10T09:19:51.790Z,990.7
2018-06-10T09:20:52.510Z,990.7
2018-06-10T09:21:53.192Z,990.7
2018-06-10T09:22:53.872Z,990.7
2018-06-10T09:23:54.553Z,990.7
2018-06-10T09:24:55.236Z,990.7
2018-06-10T09:25:55.917Z,990.7
2018-06-10T09:26:56.599Z,990.7
2018-06-10T09:27:57.280Z,990.8
2018-06-10T09:28:57.963Z,990.8
2018-06-10T09:29:58.684Z,990.8
2018-06-10T09:30:59.324Z,990.7
2018-06-10T09:32:00.020Z,990.8
2018-06-10T09:33:00.730Z,990.8
2018-06-10T09:34:01.412Z,990.7
2018-06-10T09:35:02.096Z,990.8
2018-06-10T09:36:02.814Z,990.7
2018-06-10T09:37:03.494Z,990.8
2018-06-10T09:38:04.180Z,990.7
2018-06-10T09:39:04.904Z,990.7
2018-06-10T09:40:05.589Z,990.8
2018-06-10T09:41:06.269Z,990.8
2018-06-10T09:42:07.016Z,990.7
2018-06-10T09:43:07.632Z,990.8
2018-06-10T09:44:08.314Z,990.8
2018-06-10T09:45:08.994Z,990.8
2018-06-10T09:46:09.677Z,990.8
2018-06-10T09:47:10.358Z,990.8
2018-06-10T09:48:11.040Z,990.8
2018-06-10T09:49:11.725Z,990.7
2018-06-10T09:50:12.405Z,990.7
2018-06-10T09:51:13.085Z,990.7
2018-06-10T09:52:13.781Z,990.7
2018-06-10T09:53:14.491Z,990.7
2018-06-10T09:54:15.174Z,990.7
2018-06-10T09:55:15.963Z,990.7
2018-06-10T09:56:16.540Z,990.7
2018-06-10T09:57:17.223Z,990.7
2018-06-10T09:58:17.905Z,990.7
2018-06-10T09:59:18.655Z,990.7
2018-06-10T10:00:19.350Z,990.6
2018-06-10T10:01:20.034Z,990.6
2018-06-10T10:02:20.715Z,990.6
2018-06-10T10:03:21.397Z,990.6
2018-06-10T10:04:22.081Z,990.6
2018-06-10T10:05:22.762Z,990.6
2018-06-10T10:06:23.444Z,990.6
2018-06-10T10:07:24.127Z,990.6
2018-06-10T10:08:24.810Z,990.6
2018-06-10T10:09:25.492Z,990.6
2018-06-10T10:10:26.179Z,990.5
2018-06-10T10:11:26.859Z,990.6
2018-06-10T10:12:27.545Z,990.6
2018-06-10T10:13:28.221Z,990.6
2018-06-10T10:14:28.941Z,990.6
2018-06-10T10:15:29.587Z,990.6
2018-06-10T10:16:30.273Z,990.6
2018-06-10T10:17:30.956Z,990.6
2018-06-10T10:18:31.643Z,990.6
2018-06-10T10:19:32.325Z,990.7
2018-06-10T10:20:33.008Z,990.7
2018-06-10T10:21:33.694Z,990.7
2018-06-10T10:22:34.377Z,990.7
2018-06-10T10:23:35.064Z,990.7
2018-06-10T10:24:35.748Z,990.7
2018-06-10T10:25:36.486Z,990.7
2018-06-10T10:26:37.167Z,990.7
2018-06-10T10:27:37.853Z,990.7
2018-06-10T10:28:38.540Z,990.7
2018-06-10T10:29:39.260Z,990.7
2018-06-10T10:30:39.945Z,990.7
2018-06-10T10:31:40.629Z,990.6
2018-06-10T10:32:41.312Z,990.6
2018-06-10T10:33:42.003Z,990.6
2018-06-10T10:34:42.722Z,990.6
2018-06-10T10:35:43.406Z,990.6
2018-06-10T10:36:44.090Z,990.6
2018-06-10T10:37:44.776Z,990.6
2018-06-10T10:38:45.502Z,990.7
2018-06-10T10:39:46.186Z,990.7
2018-06-10T10:40:46.871Z,990.7
2018-06-10T10:41:47.556Z,990.7
2018-06-10T10:42:48.241Z,990.6
2018-06-10T10:43:48.926Z,990.7
2018-06-10T10:44:49.612Z,990.7
2018-06-10T10:45:50.298Z,990.6
2018-06-10T10:46:50.982Z,990.6
2018-06-10T10:47:51.666Z,990.6
2018-06-10T10:48:52.353Z,990.5
2018-06-10T10:49:53.031Z,990.5
2018-06-10T10:50:53.717Z,990.5
2018-06-10T10:51:54.399Z,990.5
2018-06-10T10:52:55.085Z,990.4
2018-06-10T10:53:55.767Z,990.5
2018-06-10T10:54:56.455Z,990.4
2018-06-10T10:55:57.144Z,990.4
2018-06-10T10:56:57.821Z,990.4
2018-06-10T10:57:58.505Z,990.3
2018-06-10T10:59:59.874Z,990.4
2018-06-10T11:01:00.597Z,990.4
2018-06-10T11:02:01.322Z,990.4
2018-06-10T11:03:02.005Z,990.4
2018-06-10T11:04:02.691Z,990.4
2018-06-10T11:05:03.373Z,990.4
2018-06-10T11:06:04.059Z,990.3
2018-06-10T11:07:04.742Z,990.3
2018-06-10T11:08:05.431Z,990.3
2018-06-10T11:09:06.113Z,990.3
2018-06-10T11:10:06.801Z,990.3
2018-06-10T11:11:07.484Z,990.3
2018-06-10T11:12:08.209Z,990.3
2018-06-10T11:13:08.893Z,990.3
2018-06-10T11:14:09.575Z,990.3
2018-06-10T11:15:10.257Z,990.3
2018-06-10T11:16:10.941Z,990.3
2018-06-10T11:17:11.624Z,990.3
2018-06-10T11:18:12.308Z,990.2
2018-06-10T11:19:12.990Z,990.2
2018-06-10T11:20:13.679Z,990.2
2018-06-10T11:21:14.400Z,990.1
2018-06-10T11:22:15.084Z,990.1
2018-06-10T11:23:15.809Z,990.1
2018-06-10T11:24:16.491Z,990.1
2018-06-10T11:25:17.176Z,990.1
2018-06-10T11:26:17.860Z,990.1
2018-06-10T11:27:18.594Z,990.1
2018-06-10T11:28:19.258Z,990.2
2018-06-10T11:29:19.941Z,990.2
2018-06-10T11:30:20.627Z,990.1
2018-06-10T11:31:21.311Z,990.1
2018-06-10T11:32:21.995Z,990.1
2018-06-10T11:33:22.677Z,990.1
2018-06-10T11:34:23.376Z,990.1
2018-06-10T11:35:24.050Z,990.0
2018-06-10T11:36:24.733Z,990.1
2018-06-10T11:37:25.466Z,990.1
2018-06-10T11:38:26.150Z,990.1
2018-06-10T11:39:26.834Z,990.1
2018-06-10T11:40:27.518Z,990.1
2018-06-10T11:41:28.203Z,990.0
2018-06-10T11:42:29.022Z,990.0
2018-06-10T11:43:29.611Z,990.0
2018-06-10T11:44:30.293Z,990.0
2018-06-10T11:45:30.978Z,990.0
2018-06-10T11:46:31.661Z,989.9
2018-06-10T11:47:32.344Z,989.9
2018-06-10T11:48:33.029Z,990.0
2018-06-10T11:49:33.751Z,989.9
2018-06-10T11:50:34.436Z,989.9
2018-06-10T11:51:35.118Z,989.9
2018-06-10T11:52:35.802Z,989.9
2018-06-10T11:53:36.484Z,989.9
2018-06-10T11:54:37.169Z,989.9
2018-06-10T11:55:37.852Z,989.9
2018-06-10T11:56:38.538Z,989.8
2018-06-10T11:57:39.219Z,989.8
2018-06-10T11:58:39.903Z,989.7
2018-06-10T11:59:40.588Z,989.8
2018-06-10T12:00:41.270Z,989.7
2018-06-10T12:01:41.955Z,989.7
2018-06-10T12:02:42.676Z,989.7
2018-06-10T12:03:43.362Z,989.6
2018-06-10T12:04:44.046Z,989.7
2018-06-10T12:05:44.730Z,989.6
2018-06-10T12:06:45.412Z,989.6
2018-06-10T12:07:46.145Z,989.7
2018-06-10T12:08:46.779Z,989.7
2018-06-10T12:09:47.464Z,989.7
2018-06-10T12:10:48.184Z,989.7
2018-06-10T12:11:48.832Z,989.7
2018-06-10T12:12:49.515Z,989.7
2018-06-10T12:13:50.235Z,989.7
2018-06-10T12:14:50.881Z,989.7
2018-06-10T12:15:51.565Z,989.7
2018-06-10T12:16:52.252Z,989.8
2018-06-10T12:17:52.993Z,989.7
2018-06-10T12:18:53.695Z,989.7
2018-06-10T12:19:54.379Z,989.7
2018-06-10T12:20:55.062Z,989.7
2018-06-10T12:21:55.743Z,989.7
2018-06-10T12:22:56.429Z,989.7
2018-06-10T12:23:57.111Z,989.7
2018-06-10T12:24:57.796Z,989.6
2018-06-10T12:25:58.479Z,989.7
2018-06-10T12:26:59.162Z,989.7
2018-06-10T12:27:59.845Z,989.7
2018-06-10T12:29:00.527Z,989.7
2018-06-10T12:30:01.212Z,989.7
2018-06-10T12:31:01.901Z,989.7
2018-06-10T12:32:02.620Z,989.7
2018-06-10T12:33:03.302Z,989.6
2018-06-10T12:34:03.988Z,989.6
2018-06-10T12:35:04.709Z,989.6
2018-06-10T12:36:05.394Z,989.6
2018-06-10T12:37:06.079Z,989.6
2018-06-10T12:38:06.810Z,989.7
2018-06-10T12:39:07.494Z,989.7
2018-06-10T12:40:08.215Z,989.7
2018-06-10T12:41:08.898Z,989.7
2018-06-10T12:42:09.582Z,989.7
2018-06-10T12:43:10.265Z,989.7
2018-06-10T12:44:10.952Z,989.7
2018-06-10T12:45:11.671Z,989.7
2018-06-10T12:46:12.355Z,989.7
2018-06-10T12:47:13.037Z,989.6
2018-06-10T12:48:13.721Z,989.7
2018-06-10T12:49:14.481Z,989.6
2018-06-10T12:50:15.120Z,989.7
2018-06-10T12:51:15.802Z,989.7
2018-06-10T12:52:16.488Z,989.7
2018-06-10T12:53:17.171Z,989.7
2018-06-10T12:54:17.856Z,989.6
2018-06-10T12:55:18.539Z,989.7
2018-06-10T12:56:19.222Z,989.7
2018-06-10T12:57:19.905Z,989.7
2018-06-10T12:58:20.587Z,989.7
2018-06-10T12:59:21.268Z,989.7
2018-06-10T13:00:21.953Z,989.7
2018-06-10T13:01:22.635Z,989.7
2018-06-10T13:02:23.318Z,989.6